sensor_id;sensor_type;location;lat;lon;timestamp;temperature;humidity
58568;DHT22;44354;46.192;-1.076;2023-04-01T00:01:21;10.80;99.90
58568;DHT22;44354;46.192;-1.076;2023-04-01T00:03:47;10.70;99.90
58568;DHT22;44354;46.192;-1.076;2023-04-01T00:06:14;10.70;99.90
58568;DHT22;44354;46.192;-1.076;2023-04-01T00:08:40;10.80;99.90
58568;DHT22;44354;46.192;-1.076;2023-04-01T00:11:06;10.80;99.90
58568;DHT22;44354;46.192;-1.076;2023-04-01T00:13:31;10.80;99.90
58568;DHT22;44354;46.192;-1.076;2023-04-01T00:15:57;10.80;99.90
58568;DHT22;44354;46.192;-1.076;2023-04-01T00:18:23;10.80;99.90
58568;DHT22;44354;46.192;-1.076;2023-04-01T00:20:49;10.80;99.90
58568;DHT22;44354;46.192;-1.076;2023-04-01T00:23:16;10.80;99.90
58568;DHT22;44354;46.192;-1.076;2023-04-01T00:25:41;10.80;99.90
58568;DHT22;44354;46.192;-1.076;2023-04-01T00:28:07;10.70;99.90
58568;DHT22;44354;46.192;-1.076;2023-04-01T00:30:33;10.80;99.90
58568;DHT22;44354;46.192;-1.076;2023-04-01T00:32:58;10.80;99.90
58568;DHT22;44354;46.192;-1.076;2023-04-01T00:35:24;10.80;99.90
58568;DHT22;44354;46.192;-1.076;2023-04-01T00:37:50;10.80;99.90
58568;DHT22;44354;46.192;-1.076;2023-04-01T00:42:50;10.80;99.90
58568;DHT22;44354;46.192;-1.076;2023-04-01T00:45:31;10.80;99.90
58568;DHT22;44354;46.192;-1.076;2023-04-01T00:47:58;10.70;99.90
58568;DHT22;44354;46.192;-1.076;2023-04-01T00:50:25;10.80;99.90
58568;DHT22;44354;46.192;-1.076;2023-04-01T00:52:52;10.80;99.90
58568;DHT22;44354;46.192;-1.076;2023-04-01T00:55:18;10.80;99.90
58568;DHT22;44354;46.192;-1.076;2023-04-01T00:57:45;10.80;99.90
58568;DHT22;44354;46.192;-1.076;2023-04-01T01:00:11;10.80;99.90
58568;DHT22;44354;46.192;-1.076;2023-04-01T01:02:40;10.70;99.90
58568;DHT22;44354;46.192;-1.076;2023-04-01T01:05:06;10.70;99.90
58568;DHT22;44354;46.192;-1.076;2023-04-01T01:07:38;10.70;99.90
58568;DHT22;44354;46.192;-1.076;2023-04-01T01:10:17;10.70;99.90
58568;DHT22;44354;46.192;-1.076;2023-04-01T01:15:32;10.70;99.90
58568;DHT22;44354;46.192;-1.076;2023-04-01T01:29:16;10.90;99.90
58568;DHT22;44354;46.192;-1.076;2023-04-01T01:36:48;10.90;99.90
58568;DHT22;44354;46.192;-1.076;2023-04-01T01:39:15;10.90;99.90
58568;DHT22;44354;46.192;-1.076;2023-04-01T01:41:42;10.90;99.90
58568;DHT22;44354;46.192;-1.076;2023-04-01T01:44:10;10.90;99.90
58568;DHT22;44354;46.192;-1.076;2023-04-01T01:46:36;10.90;99.90
58568;DHT22;44354;46.192;-1.076;2023-04-01T01:49:03;10.90;99.90
58568;DHT22;44354;46.192;-1.076;2023-04-01T01:51:29;10.90;99.90
58568;DHT22;44354;46.192;-1.076;2023-04-01T01:53:54;11.00;99.90
58568;DHT22;44354;46.192;-1.076;2023-04-01T01:56:21;11.00;99.90
58568;DHT22;44354;46.192;-1.076;2023-04-01T01:58:49;10.90;99.90
58568;DHT22;44354;46.192;-1.076;2023-04-01T02:01:21;10.90;99.90
58568;DHT22;44354;46.192;-1.076;2023-04-01T02:03:47;10.90;99.90
58568;DHT22;44354;46.192;-1.076;2023-04-01T02:06:14;10.80;99.90
58568;DHT22;44354;46.192;-1.076;2023-04-01T02:08:42;10.80;99.90
58568;DHT22;44354;46.192;-1.076;2023-04-01T02:11:10;10.80;99.90
58568;DHT22;44354;46.192;-1.076;2023-04-01T02:13:48;10.70;99.90
58568;DHT22;44354;46.192;-1.076;2023-04-01T02:16:20;10.70;99.90
58568;DHT22;44354;46.192;-1.076;2023-04-01T02:18:48;10.70;99.90
58568;DHT22;44354;46.192;-1.076;2023-04-01T02:21:16;10.70;99.90
58568;DHT22;44354;46.192;-1.076;2023-04-01T02:23:43;10.70;99.90
58568;DHT22;44354;46.192;-1.076;2023-04-01T02:26:10;10.80;99.90
58568;DHT22;44354;46.192;-1.076;2023-04-01T02:28:36;10.80;99.90
58568;DHT22;44354;46.192;-1.076;2023-04-01T02:31:03;10.70;99.90
58568;DHT22;44354;46.192;-1.076;2023-04-01T02:33:29;10.70;99.90
58568;DHT22;44354;46.192;-1.076;2023-04-01T02:35:56;10.60;99.90
58568;DHT22;44354;46.192;-1.076;2023-04-01T02:38:22;10.60;99.90
58568;DHT22;44354;46.192;-1.076;2023-04-01T02:40:49;10.50;99.90
58568;DHT22;44354;46.192;-1.076;2023-04-01T02:43:15;10.50;99.90
58568;DHT22;44354;46.192;-1.076;2023-04-01T02:45:42;10.50;99.90
58568;DHT22;44354;46.192;-1.076;2023-04-01T02:48:07;10.40;99.90
58568;DHT22;44354;46.192;-1.076;2023-04-01T02:50:33;10.50;99.90
58568;DHT22;44354;46.192;-1.076;2023-04-01T02:52:58;10.50;99.90
58568;DHT22;44354;46.192;-1.076;2023-04-01T02:55:24;10.50;99.90
58568;DHT22;44354;46.192;-1.076;2023-04-01T02:57:50;10.50;99.90
58568;DHT22;44354;46.192;-1.076;2023-04-01T03:00:16;10.60;99.90
58568;DHT22;44354;46.192;-1.076;2023-04-01T03:02:41;10.60;99.90
58568;DHT22;44354;46.192;-1.076;2023-04-01T03:05:07;10.70;99.90
58568;DHT22;44354;46.192;-1.076;2023-04-01T03:07:33;10.70;99.90
58568;DHT22;44354;46.192;-1.076;2023-04-01T03:09:58;10.70;99.90
58568;DHT22;44354;46.192;-1.076;2023-04-01T03:12:24;10.70;99.90
58568;DHT22;44354;46.192;-1.076;2023-04-01T03:14:49;10.70;99.90
58568;DHT22;44354;46.192;-1.076;2023-04-01T03:17:15;10.70;99.90
58568;DHT22;44354;46.192;-1.076;2023-04-01T03:19:40;10.70;99.90
58568;DHT22;44354;46.192;-1.076;2023-04-01T03:22:06;10.80;99.90
58568;DHT22;44354;46.192;-1.076;2023-04-01T03:24:31;10.80;99.90
58568;DHT22;44354;46.192;-1.076;2023-04-01T03:26:57;10.70;99.90
58568;DHT22;44354;46.192;-1.076;2023-04-01T03:29:22;10.70;99.90
58568;DHT22;44354;46.192;-1.076;2023-04-01T03:31:48;10.70;99.90
58568;DHT22;44354;46.192;-1.076;2023-04-01T03:34:14;10.70;99.90
58568;DHT22;44354;46.192;-1.076;2023-04-01T03:36:39;10.70;99.90
58568;DHT22;44354;46.192;-1.076;2023-04-01T03:39:05;10.70;99.90
58568;DHT22;44354;46.192;-1.076;2023-04-01T03:41:31;10.80;99.90
58568;DHT22;44354;46.192;-1.076;2023-04-01T03:43:57;10.80;99.90
58568;DHT22;44354;46.192;-1.076;2023-04-01T03:46:22;10.80;99.90
58568;DHT22;44354;46.192;-1.076;2023-04-01T03:48:48;10.80;99.90
58568;DHT22;44354;46.192;-1.076;2023-04-01T03:51:13;10.80;99.90
58568;DHT22;44354;46.192;-1.076;2023-04-01T03:53:39;10.70;99.90
58568;DHT22;44354;46.192;-1.076;2023-04-01T03:56:05;10.70;99.90
58568;DHT22;44354;46.192;-1.076;2023-04-01T03:58:31;10.70;99.90
58568;DHT22;44354;46.192;-1.076;2023-04-01T04:00:57;10.70;99.90
58568;DHT22;44354;46.192;-1.076;2023-04-01T04:03:22;10.70;99.90
58568;DHT22;44354;46.192;-1.076;2023-04-01T04:05:48;10.70;99.90
58568;DHT22;44354;46.192;-1.076;2023-04-01T04:08:14;10.60;99.90
58568;DHT22;44354;46.192;-1.076;2023-04-01T04:10:39;10.50;99.90
58568;DHT22;44354;46.192;-1.076;2023-04-01T04:13:06;10.50;99.90
58568;DHT22;44354;46.192;-1.076;2023-04-01T04:15:32;10.60;99.90
58568;DHT22;44354;46.192;-1.076;2023-04-01T04:17:57;10.60;99.90
58568;DHT22;44354;46.192;-1.076;2023-04-01T04:20:23;10.50;99.90
58568;DHT22;44354;46.192;-1.076;2023-04-01T04:22:48;10.50;99.90
58568;DHT22;44354;46.192;-1.076;2023-04-01T04:25:14;10.50;99.90
58568;DHT22;44354;46.192;-1.076;2023-04-01T04:27:40;10.40;99.90
58568;DHT22;44354;46.192;-1.076;2023-04-01T04:30:05;10.40;99.90
58568;DHT22;44354;46.192;-1.076;2023-04-01T04:32:31;10.40;99.90
58568;DHT22;44354;46.192;-1.076;2023-04-01T04:34:57;10.40;99.90
58568;DHT22;44354;46.192;-1.076;2023-04-01T04:37:22;10.40;99.90
58568;DHT22;44354;46.192;-1.076;2023-04-01T04:39:48;10.50;99.90
58568;DHT22;44354;46.192;-1.076;2023-04-01T04:42:13;10.50;99.90
58568;DHT22;44354;46.192;-1.076;2023-04-01T04:44:39;10.40;99.90
58568;DHT22;44354;46.192;-1.076;2023-04-01T04:47:05;10.40;99.90
58568;DHT22;44354;46.192;-1.076;2023-04-01T04:49:31;10.40;99.90
58568;DHT22;44354;46.192;-1.076;2023-04-01T04:51:56;10.50;99.90
58568;DHT22;44354;46.192;-1.076;2023-04-01T04:54:22;10.50;99.90
58568;DHT22;44354;46.192;-1.076;2023-04-01T04:56:47;10.60;99.90
58568;DHT22;44354;46.192;-1.076;2023-04-01T04:59:13;10.60;99.90
58568;DHT22;44354;46.192;-1.076;2023-04-01T05:01:38;10.60;99.90
58568;DHT22;44354;46.192;-1.076;2023-04-01T05:04:04;10.70;99.90
58568;DHT22;44354;46.192;-1.076;2023-04-01T05:06:30;10.70;99.90
58568;DHT22;44354;46.192;-1.076;2023-04-01T05:08:56;10.70;99.90
58568;DHT22;44354;46.192;-1.076;2023-04-01T05:11:22;10.70;99.90
58568;DHT22;44354;46.192;-1.076;2023-04-01T05:13:48;10.70;99.90
58568;DHT22;44354;46.192;-1.076;2023-04-01T05:16:15;10.70;99.90
58568;DHT22;44354;46.192;-1.076;2023-04-01T05:18:41;10.70;99.90
58568;DHT22;44354;46.192;-1.076;2023-04-01T05:21:07;10.70;99.90
58568;DHT22;44354;46.192;-1.076;2023-04-01T05:23:33;10.50;99.90
58568;DHT22;44354;46.192;-1.076;2023-04-01T05:26:02;10.40;99.90
58568;DHT22;44354;46.192;-1.076;2023-04-01T05:28:28;10.40;99.90
58568;DHT22;44354;46.192;-1.076;2023-04-01T05:30:53;10.30;99.90
58568;DHT22;44354;46.192;-1.076;2023-04-01T05:33:19;10.10;99.90
58568;DHT22;44354;46.192;-1.076;2023-04-01T05:35:44;10.10;99.90
58568;DHT22;44354;46.192;-1.076;2023-04-01T05:38:10;10.10;99.90
58568;DHT22;44354;46.192;-1.076;2023-04-01T05:40:35;10.10;99.90
58568;DHT22;44354;46.192;-1.076;2023-04-01T05:43:01;10.20;99.90
58568;DHT22;44354;46.192;-1.076;2023-04-01T05:45:26;10.20;99.90
58568;DHT22;44354;46.192;-1.076;2023-04-01T05:47:52;10.20;99.90
58568;DHT22;44354;46.192;-1.076;2023-04-01T05:50:18;10.20;99.90
58568;DHT22;44354;46.192;-1.076;2023-04-01T05:52:43;10.20;99.90
58568;DHT22;44354;46.192;-1.076;2023-04-01T05:55:10;10.20;99.90
58568;DHT22;44354;46.192;-1.076;2023-04-01T05:57:36;10.20;99.90
58568;DHT22;44354;46.192;-1.076;2023-04-01T06:00:02;10.10;99.90
58568;DHT22;44354;46.192;-1.076;2023-04-01T06:02:28;10.10;99.90
58568;DHT22;44354;46.192;-1.076;2023-04-01T06:04:54;10.20;99.90
58568;DHT22;44354;46.192;-1.076;2023-04-01T06:07:26;10.20;99.90
58568;DHT22;44354;46.192;-1.076;2023-04-01T06:09:52;10.20;99.90
58568;DHT22;44354;46.192;-1.076;2023-04-01T06:20:01;10.10;99.90
58568;DHT22;44354;46.192;-1.076;2023-04-01T06:27:49;10.20;99.90
58568;DHT22;44354;46.192;-1.076;2023-04-01T06:43:17;10.30;99.90
58568;DHT22;44354;46.192;-1.076;2023-04-01T06:51:37;10.10;99.90
58568;DHT22;44354;46.192;-1.076;2023-04-01T06:56:32;10.00;99.90
58568;DHT22;44354;46.192;-1.076;2023-04-01T07:04:24;10.00;99.90
58568;DHT22;44354;46.192;-1.076;2023-04-01T07:09:45;10.10;99.90
58568;DHT22;44354;46.192;-1.076;2023-04-01T07:14:42;10.10;99.90
58568;DHT22;44354;46.192;-1.076;2023-04-01T07:17:14;10.10;99.90
58568;DHT22;44354;46.192;-1.076;2023-04-01T07:19:42;10.10;99.90
58568;DHT22;44354;46.192;-1.076;2023-04-01T07:24:41;10.30;99.90
58568;DHT22;44354;46.192;-1.076;2023-04-01T07:27:09;10.50;99.90
58568;DHT22;44354;46.192;-1.076;2023-04-01T07:29:35;10.60;99.90
58568;DHT22;44354;46.192;-1.076;2023-04-01T07:34:53;11.00;99.90
58568;DHT22;44354;46.192;-1.076;2023-04-01T07:37:27;11.10;99.90
58568;DHT22;44354;46.192;-1.076;2023-04-01T07:47:20;10.60;99.90
58568;DHT22;44354;46.192;-1.076;2023-04-01T07:52:30;10.70;99.90
58568;DHT22;44354;46.192;-1.076;2023-04-01T07:56:00;10.90;99.90
58568;DHT22;44354;46.192;-1.076;2023-04-01T07:58:02;11.00;99.90
58568;DHT22;44354;46.192;-1.076;2023-04-01T08:00:33;10.90;99.90
58568;DHT22;44354;46.192;-1.076;2023-04-01T08:05:27;10.90;99.90
58568;DHT22;44354;46.192;-1.076;2023-04-01T08:08:04;11.00;99.90
58568;DHT22;44354;46.192;-1.076;2023-04-01T08:13:13;11.30;99.90
58568;DHT22;44354;46.192;-1.076;2023-04-01T08:15:52;11.40;99.90
58568;DHT22;44354;46.192;-1.076;2023-04-01T08:20:59;11.40;99.90
58568;DHT22;44354;46.192;-1.076;2023-04-01T08:23:27;11.50;99.90
58568;DHT22;44354;46.192;-1.076;2023-04-01T08:25:58;11.60;99.90
58568;DHT22;44354;46.192;-1.076;2023-04-01T08:28:36;11.60;99.90
58568;DHT22;44354;46.192;-1.076;2023-04-01T08:31:04;11.70;99.90
58568;DHT22;44354;46.192;-1.076;2023-04-01T08:33:31;11.70;99.90
58568;DHT22;44354;46.192;-1.076;2023-04-01T08:35:59;11.80;99.90
58568;DHT22;44354;46.192;-1.076;2023-04-01T08:38:32;11.90;99.90
58568;DHT22;44354;46.192;-1.076;2023-04-01T08:54:51;11.70;99.90
58568;DHT22;44354;46.192;-1.076;2023-04-01T08:59:35;11.30;99.90
58568;DHT22;44354;46.192;-1.076;2023-04-01T09:25:41;10.50;99.90
58568;DHT22;44354;46.192;-1.076;2023-04-01T09:33:10;11.00;99.90
58568;DHT22;44354;46.192;-1.076;2023-04-01T09:35:55;11.00;99.90
58568;DHT22;44354;46.192;-1.076;2023-04-01T09:38:28;11.00;99.90
58568;DHT22;44354;46.192;-1.076;2023-04-01T09:41:18;11.10;99.90
58568;DHT22;44354;46.192;-1.076;2023-04-01T09:46:20;11.00;99.90
58568;DHT22;44354;46.192;-1.076;2023-04-01T09:51:30;11.00;99.90
58568;DHT22;44354;46.192;-1.076;2023-04-01T10:46:07;11.30;99.90
58568;DHT22;44354;46.192;-1.076;2023-04-01T11:07:47;9.70;99.90
58568;DHT22;44354;46.192;-1.076;2023-04-01T11:18:33;9.60;99.90
58568;DHT22;44354;46.192;-1.076;2023-04-01T11:44:46;10.60;99.90
58568;DHT22;44354;46.192;-1.076;2023-04-01T11:47:22;10.70;99.90
58568;DHT22;44354;46.192;-1.076;2023-04-01T11:49:59;11.00;99.90
58568;DHT22;44354;46.192;-1.076;2023-04-01T11:57:54;11.60;99.90
58568;DHT22;44354;46.192;-1.076;2023-04-01T12:08:06;11.80;99.90
58568;DHT22;44354;46.192;-1.076;2023-04-01T12:10:39;11.60;99.90
58568;DHT22;44354;46.192;-1.076;2023-04-01T12:13:14;11.40;99.90
58568;DHT22;44354;46.192;-1.076;2023-04-01T12:18:30;11.50;99.90
58568;DHT22;44354;46.192;-1.076;2023-04-01T12:31:19;10.50;99.90
58568;DHT22;44354;46.192;-1.076;2023-04-01T12:33:59;10.30;99.90
58568;DHT22;44354;46.192;-1.076;2023-04-01T12:44:37;10.80;99.90
58568;DHT22;44354;46.192;-1.076;2023-04-01T13:03:02;10.00;99.90
58568;DHT22;44354;46.192;-1.076;2023-04-01T13:15:24;9.80;99.90
58568;DHT22;44354;46.192;-1.076;2023-04-01T13:23:37;10.20;99.90
58568;DHT22;44354;46.192;-1.076;2023-04-01T13:31:29;11.00;99.90
58568;DHT22;44354;46.192;-1.076;2023-04-01T13:34:01;11.30;99.90
58568;DHT22;44354;46.192;-1.076;2023-04-01T13:44:13;11.40;99.90
58568;DHT22;44354;46.192;-1.076;2023-04-01T14:09:55;11.20;99.90
58568;DHT22;44354;46.192;-1.076;2023-04-01T14:17:27;11.70;99.90
58568;DHT22;44354;46.192;-1.076;2023-04-01T14:22:39;11.30;99.90
58568;DHT22;44354;46.192;-1.076;2023-04-01T14:27:42;10.90;99.90
58568;DHT22;44354;46.192;-1.076;2023-04-01T14:32:56;10.60;99.90
58568;DHT22;44354;46.192;-1.076;2023-04-01T14:35:33;10.60;99.90
58568;DHT22;44354;46.192;-1.076;2023-04-01T14:50:50;11.20;99.90
58568;DHT22;44354;46.192;-1.076;2023-04-01T14:55:52;11.50;99.90
58568;DHT22;44354;46.192;-1.076;2023-04-01T14:58:19;11.30;99.90
58568;DHT22;44354;46.192;-1.076;2023-04-01T15:03:18;11.70;99.90
58568;DHT22;44354;46.192;-1.076;2023-04-01T15:05:49;11.40;99.90
58568;DHT22;44354;46.192;-1.076;2023-04-01T15:15:51;12.00;99.90
58568;DHT22;44354;46.192;-1.076;2023-04-01T15:18:40;11.80;99.90
58568;DHT22;44354;46.192;-1.076;2023-04-01T15:24:06;11.60;99.90
58568;DHT22;44354;46.192;-1.076;2023-04-01T15:31:50;12.00;99.90
58568;DHT22;44354;46.192;-1.076;2023-04-01T15:34:23;11.70;99.90
58568;DHT22;44354;46.192;-1.076;2023-04-01T15:36:53;11.70;99.90
58568;DHT22;44354;46.192;-1.076;2023-04-01T15:39:24;11.80;99.90
58568;DHT22;44354;46.192;-1.076;2023-04-01T16:00:26;11.80;99.90
58568;DHT22;44354;46.192;-1.076;2023-04-01T16:15:44;11.60;99.90
58568;DHT22;44354;46.192;-1.076;2023-04-01T16:20:57;11.60;99.90
58568;DHT22;44354;46.192;-1.076;2023-04-01T16:28:36;11.50;99.90
58568;DHT22;44354;46.192;-1.076;2023-04-01T16:31:15;11.40;99.90
58568;DHT22;44354;46.192;-1.076;2023-04-01T16:33:58;11.40;99.90
58568;DHT22;44354;46.192;-1.076;2023-04-01T16:41:36;11.40;99.90
58568;DHT22;44354;46.192;-1.076;2023-04-01T16:44:09;11.30;99.90
58568;DHT22;44354;46.192;-1.076;2023-04-01T16:46:43;11.20;99.90
58568;DHT22;44354;46.192;-1.076;2023-04-01T16:51:46;11.20;99.90
58568;DHT22;44354;46.192;-1.076;2023-04-01T17:04:48;10.90;99.90
58568;DHT22;44354;46.192;-1.076;2023-04-01T17:07:26;10.90;99.90
58568;DHT22;44354;46.192;-1.076;2023-04-01T17:12:54;10.90;99.90
58568;DHT22;44354;46.192;-1.076;2023-04-01T17:18:04;10.80;99.90
58568;DHT22;44354;46.192;-1.076;2023-04-01T17:20:36;10.80;99.90
58568;DHT22;44354;46.192;-1.076;2023-04-01T17:25:48;10.60;99.90
58568;DHT22;44354;46.192;-1.076;2023-04-01T17:31:10;10.60;99.90
58568;DHT22;44354;46.192;-1.076;2023-04-01T17:33:59;10.50;99.90
58568;DHT22;44354;46.192;-1.076;2023-04-01T17:39:19;10.40;99.90
58568;DHT22;44354;46.192;-1.076;2023-04-01T17:51:33;10.20;99.90
58568;DHT22;44354;46.192;-1.076;2023-04-01T17:56:45;10.10;99.90
58568;DHT22;44354;46.192;-1.076;2023-04-01T18:00:16;10.10;99.90
58568;DHT22;44354;46.192;-1.076;2023-04-01T18:02:24;10.10;99.90
58568;DHT22;44354;46.192;-1.076;2023-04-01T18:05:05;10.10;99.90
58568;DHT22;44354;46.192;-1.076;2023-04-01T18:07:45;10.00;99.90
58568;DHT22;44354;46.192;-1.076;2023-04-01T18:10:25;10.00;99.90
58568;DHT22;44354;46.192;-1.076;2023-04-01T18:15:37;9.90;99.90
58568;DHT22;44354;46.192;-1.076;2023-04-01T18:20:43;9.80;99.90
58568;DHT22;44354;46.192;-1.076;2023-04-01T18:25:43;9.80;99.90
58568;DHT22;44354;46.192;-1.076;2023-04-01T18:30:40;9.80;99.90
58568;DHT22;44354;46.192;-1.076;2023-04-01T18:33:19;9.80;99.90
58568;DHT22;44354;46.192;-1.076;2023-04-01T18:35:52;9.70;99.90
58568;DHT22;44354;46.192;-1.076;2023-04-01T18:38:35;9.70;99.90
58568;DHT22;44354;46.192;-1.076;2023-04-01T18:41:13;9.70;99.90
58568;DHT22;44354;46.192;-1.076;2023-04-01T18:46:07;9.70;99.90
58568;DHT22;44354;46.192;-1.076;2023-04-01T18:48:42;9.70;99.90
58568;DHT22;44354;46.192;-1.076;2023-04-01T18:51:16;9.70;99.90
58568;DHT22;44354;46.192;-1.076;2023-04-01T18:56:11;9.70;99.90
58568;DHT22;44354;46.192;-1.076;2023-04-01T18:58:48;9.60;99.90
58568;DHT22;44354;46.192;-1.076;2023-04-01T19:01:25;9.60;99.90
58568;DHT22;44354;46.192;-1.076;2023-04-01T19:03:53;9.60;99.90
58568;DHT22;44354;46.192;-1.076;2023-04-01T19:06:23;9.60;99.90
58568;DHT22;44354;46.192;-1.076;2023-04-01T19:08:51;9.60;99.90
58568;DHT22;44354;46.192;-1.076;2023-04-01T19:11:40;9.60;99.90
58568;DHT22;44354;46.192;-1.076;2023-04-01T19:16:52;9.60;99.90
58568;DHT22;44354;46.192;-1.076;2023-04-01T19:22:12;9.70;99.90
58568;DHT22;44354;46.192;-1.076;2023-04-01T19:27:22;9.70;99.90
58568;DHT22;44354;46.192;-1.076;2023-04-01T19:32:52;9.70;99.90
58568;DHT22;44354;46.192;-1.076;2023-04-01T19:37:40;9.70;99.90
58568;DHT22;44354;46.192;-1.076;2023-04-01T19:48:30;9.70;99.90
58568;DHT22;44354;46.192;-1.076;2023-04-01T19:56:18;9.70;99.90
58568;DHT22;44354;46.192;-1.076;2023-04-01T20:01:14;9.70;99.90
58568;DHT22;44354;46.192;-1.076;2023-04-01T20:09:03;9.60;99.90
58568;DHT22;44354;46.192;-1.076;2023-04-01T20:17:20;9.60;99.90
58568;DHT22;44354;46.192;-1.076;2023-04-01T20:20:14;9.50;99.90
58568;DHT22;44354;46.192;-1.076;2023-04-01T20:22:23;9.60;99.90
58568;DHT22;44354;46.192;-1.076;2023-04-01T20:24:51;9.50;99.90
58568;DHT22;44354;46.192;-1.076;2023-04-01T20:27:18;9.50;99.90
58568;DHT22;44354;46.192;-1.076;2023-04-01T20:30:12;9.50;99.90
58568;DHT22;44354;46.192;-1.076;2023-04-01T20:35:16;9.50;99.90
58568;DHT22;44354;46.192;-1.076;2023-04-01T20:37:48;9.50;99.90
58568;DHT22;44354;46.192;-1.076;2023-04-01T20:40:25;9.50;99.90
58568;DHT22;44354;46.192;-1.076;2023-04-01T20:50:37;9.50;99.90
58568;DHT22;44354;46.192;-1.076;2023-04-01T20:53:15;9.60;99.90
58568;DHT22;44354;46.192;-1.076;2023-04-01T20:55:55;9.60;99.90
58568;DHT22;44354;46.192;-1.076;2023-04-01T20:58:24;9.60;99.90
58568;DHT22;44354;46.192;-1.076;2023-04-01T21:08:59;9.60;99.90
58568;DHT22;44354;46.192;-1.076;2023-04-01T21:11:37;9.60;99.90
58568;DHT22;44354;46.192;-1.076;2023-04-01T21:14:25;9.60;99.90
58568;DHT22;44354;46.192;-1.076;2023-04-01T21:37:49;9.70;99.90
58568;DHT22;44354;46.192;-1.076;2023-04-01T21:45:37;9.70;99.90
58568;DHT22;44354;46.192;-1.076;2023-04-01T22:09:02;9.70;99.90
58568;DHT22;44354;46.192;-1.076;2023-04-01T22:11:34;9.70;99.90
58568;DHT22;44354;46.192;-1.076;2023-04-01T22:14:11;9.70;99.90
58568;DHT22;44354;46.192;-1.076;2023-04-01T22:19:19;9.70;99.90
58568;DHT22;44354;46.192;-1.076;2023-04-01T22:21:52;9.70;99.90
58568;DHT22;44354;46.192;-1.076;2023-04-01T22:27:10;9.70;99.90
58568;DHT22;44354;46.192;-1.076;2023-04-01T22:29:41;9.60;99.90
58568;DHT22;44354;46.192;-1.076;2023-04-01T22:34:49;9.70;99.90
58568;DHT22;44354;46.192;-1.076;2023-04-01T22:37:18;9.60;99.90
58568;DHT22;44354;46.192;-1.076;2023-04-01T22:49:59;9.60;99.90
58568;DHT22;44354;46.192;-1.076;2023-04-01T22:54:55;9.70;99.90
58568;DHT22;44354;46.192;-1.076;2023-04-01T23:00:00;9.70;99.90
58568;DHT22;44354;46.192;-1.076;2023-04-01T23:02:39;9.60;99.90
58568;DHT22;44354;46.192;-1.076;2023-04-01T23:05:05;9.70;99.90
58568;DHT22;44354;46.192;-1.076;2023-04-01T23:12:58;9.60;99.90
58568;DHT22;44354;46.192;-1.076;2023-04-01T23:15:25;9.60;99.90
58568;DHT22;44354;46.192;-1.076;2023-04-01T23:21:03;9.60;99.90
58568;DHT22;44354;46.192;-1.076;2023-04-01T23:24:17;9.50;99.90
58568;DHT22;44354;46.192;-1.076;2023-04-01T23:28:59;9.40;99.90
58568;DHT22;44354;46.192;-1.076;2023-04-01T23:31:41;9.40;99.90
58568;DHT22;44354;46.192;-1.076;2023-04-01T23:39:20;9.30;99.90
58568;DHT22;44354;46.192;-1.076;2023-04-01T23:41:47;9.20;99.90
58568;DHT22;44354;46.192;-1.076;2023-04-01T23:44:12;9.20;99.90
58568;DHT22;44354;46.192;-1.076;2023-04-01T23:46:39;9.20;99.90
58568;DHT22;44354;46.192;-1.076;2023-04-01T23:49:05;9.20;99.90
58568;DHT22;44354;46.192;-1.076;2023-04-01T23:51:39;9.10;99.90
58568;DHT22;44354;46.192;-1.076;2023-04-01T23:54:25;9.20;99.90
58568;DHT22;44354;46.192;-1.076;2023-04-01T23:56:53;9.10;99.90
58568;DHT22;44354;46.192;-1.076;2023-04-01T23:59:22;9.10;99.90
